Wetterdaten: Woche 07.11.11 - 13.11.11 (KW45)
Datum Zeit Temp. Innen Temp. Aussen UV X Diff Temp. Feuchte Inne Feuchte Auss Sonnenschein Luftdruck Regen ab 0,1 Wind Sonnenschein T Regendauer Windben
07.11.2011 00:00 18,4 C 9,5 C 0,0 UV-I 0,0 C 58 % 90 % 0 % 1018,1 hPa 0,0 l/m 9,9 km/h (2 Bft) 0,00 h 0,00 h 11,5 km/h (2 Bft)
07.11.2011 01:00 18,3 C 9,0 C 0,0 UV-I 0,0 C 57 % 90 % 0 % 1017,9 hPa 0,0 l/m 10,9 km/h (2 Bft) 0,00 h 0,00 h 10,3 km/h (2 Bft)
07.11.2011 02:00 18,2 C 8,8 C 0,0 UV-I 0,0 C 58 % 92 % 0 % 1017,9 hPa 0,0 l/m 5,6 km/h (1 Bft) 0,00 h 0,00 h 5,5 km/h (1 Bft)
07.11.2011 03:00 18,2 C 8,9 C 0,0 UV-I 0,0 C 58 % 92 % 0 % 1018,1 hPa 0,0 l/m 8,1 km/h (2 Bft) 0,00 h 0,00 h 9,5 km/h (2 Bft)
07.11.2011 04:00 18,2 C 8,6 C 0,0 UV-I 0,0 C 57 % 92 % 0 % 1017,9 hPa 0,0 l/m 7,0 km/h (2 Bft) 0,00 h 0,00 h 7,2 km/h (2 Bft)
07.11.2011 05:00 18,1 C 8,3 C 0,0 UV-I 0,0 C 57 % 92 % 0 % 1018,2 hPa 0,0 l/m 5,3 km/h (1 Bft) 0,00 h 0,00 h 5,8 km/h (2 Bft)
07.11.2011 06:00 18,0 C 8,3 C 0,0 UV-I 0,0 C 57 % 91 % 0 % 1018,2 hPa 0,0 l/m 3,4 km/h (1 Bft) 0,00 h 0,00 h 3,9 km/h (1 Bft)
07.11.2011 07:00 18,0 C 8,4 C 0,0 UV-I 0,0 C 57 % 92 % 0 % 1017,9 hPa 0,0 l/m 4,9 km/h (1 Bft) 0,00 h 0,00 h 5,1 km/h (1 Bft)
07.11.2011 08:00 18,0 C 8,5 C 0,0 UV-I 0,0 C 58 % 92 % 0 % 1017,9 hPa 0,0 l/m 4,5 km/h (1 Bft) 0,00 h 0,00 h 5,2 km/h (1 Bft)
07.11.2011 09:00 18,0 C 8,7 C 0,0 UV-I 0,0 C 58 % 91 % 0 % 1018,2 hPa 0,0 l/m 6,7 km/h (2 Bft) 0,00 h 0,00 h 7,0 km/h (2 Bft)
07.11.2011 10:00 18,0 C 8,8 C 0,0 UV-I 0,1 C 57 % 90 % 2 % 1018,3 hPa 0,0 l/m 6,5 km/h (2 Bft) 0,00 h 0,00 h 7,1 km/h (2 Bft)
07.11.2011 11:00 18,0 C 8,7 C 0,0 UV-I 0,0 C 57 % 90 % 0 % 1018,5 hPa 0,0 l/m 6,6 km/h (2 Bft) 0,00 h 0,00 h 6,9 km/h (2 Bft)
07.11.2011 12:00 18,0 C 8,9 C 0,0 UV-I 0,0 C 56 % 90 % 1 % 1018,2 hPa 0,0 l/m 4,8 km/h (1 Bft) 0,00 h 0,00 h 5,2 km/h (1 Bft)
07.11.2011 13:00 18,0 C 9,1 C 0,0 UV-I 0,1 C 57 % 89 % 2 % 1017,5 hPa 0,0 l/m 5,5 km/h (1 Bft) 0,00 h 0,00 h 5,7 km/h (1 Bft)
07.11.2011 14:00 18,0 C 9,1 C 0,0 UV-I 0,0 C 57 % 89 % 0 % 1017,1 hPa 0,0 l/m 4,5 km/h (1 Bft) 0,00 h 0,00 h 4,9 km/h (1 Bft)
07.11.2011 15:00 18,0 C 9,1 C 0,0 UV-I 0,0 C 57 % 88 % 0 % 1016,8 hPa 0,0 l/m 3,5 km/h (1 Bft) 0,00 h 0,00 h 4,3 km/h (1 Bft)
07.11.2011 16:00 18,0 C 9,1 C 0,0 UV-I 0,0 C 56 % 87 % 0 % 1016,7 hPa 0,0 l/m 3,3 km/h (1 Bft) 0,00 h 0,00 h 4,1 km/h (1 Bft)
07.11.2011 17:00 17,9 C 9,1 C 0,0 UV-I 0,0 C 56 % 87 % 0 % 1016,6 hPa 0,0 l/m 3,3 km/h (1 Bft) 0,00 h 0,00 h 3,7 km/h (1 Bft)
07.11.2011 18:00 17,9 C 9,0 C 0,0 UV-I 0,0 C 56 % 87 % 0 % 1016,9 hPa 0,0 l/m 3,7 km/h (1 Bft) 0,00 h 0,00 h 4,7 km/h (1 Bft)
07.11.2011 19:00 17,8 C 9,1 C 0,0 UV-I 0,0 C 56 % 87 % 0 % 1017,1 hPa 0,0 l/m 2,8 km/h (1 Bft) 0,00 h 0,00 h 2,6 km/h (1 Bft)
07.11.2011 20:00 17,8 C 9,1 C 0,0 UV-I 0,0 C 56 % 88 % 0 % 1017,0 hPa 0,0 l/m 0,0 km/h (0 Bft) 0,00 h 0,00 h 0,0 km/h (0 Bft)
07.11.2011 21:00 17,8 C 8,3 C 0,0 UV-I 0,0 C 56 % 88 % 0 % 1017,1 hPa 0,0 l/m 0,0 km/h (0 Bft) 0,00 h 0,00 h 0,0 km/h (0 Bft)
07.11.2011 22:00 17,6 C 7,2 C 0,0 UV-I 0,0 C 56 % 89 % 0 % 1017,1 hPa 0,0 l/m 0,2 km/h (0 Bft) 0,00 h 0,00 h 0,2 km/h (0 Bft)
07.11.2011 23:00 17,6 C 6,8 C 0,0 UV-I 0,0 C 56 % 90 % 0 % 1017,0 hPa 0,0 l/m 0,1 km/h (0 Bft) 0,00 h 0,00 h 0,0 km/h (0 Bft)
08.11.2011 00:00 17,4 C 6,1 C 0,0 UV-I 0,0 C 56 % 91 % 0 % 1016,9 hPa 0,0 l/m 0,0 km/h (0 Bft) 0,00 h 0,00 h 0,0 km/h (0 Bft)
08.11.2011 01:00 17,2 C 5,6 C 0,0 UV-I 0,0 C 56 % 91 % 0 % 1016,7 hPa 0,0 l/m 0,0 km/h (0 Bft) 0,00 h 0,00 h 0,0 km/h (0 Bft)
08.11.2011 02:00 17,2 C 5,8 C 0,0 UV-I 0,0 C 56 % 92 % 0 % 1016,5 hPa 0,0 l/m 0,2 km/h (0 Bft) 0,00 h 0,00 h 0,4 km/h (0 Bft)
08.11.2011 03:00 17,2 C 6,4 C 0,0 UV-I 0,0 C 56 % 93 % 0 % 1016,6 hPa 0,0 l/m 0,2 km/h (0 Bft) 0,00 h 0,00 h 0,0 km/h (0 Bft)
08.11.2011 04:00 17,2 C 6,1 C 0,0 UV-I 0,0 C 56 % 93 % 0 % 1016,6 hPa 0,0 l/m 0,0 km/h (0 Bft) 0,00 h 0,00 h 0,0 km/h (0 Bft)
08.11.2011 05:00 17,1 C 5,3 C 0,0 UV-I 0,0 C 55 % 93 % 0 % 1016,5 hPa 0,0 l/m 0,0 km/h (0 Bft) 0,00 h 0,00 h 0,0 km/h (0 Bft)
08.11.2011 06:00 17,0 C 4,9 C 0,0 UV-I 0,0 C 55 % 93 % 0 % 1016,3 hPa 0,0 l/m 0,0 km/h (0 Bft) 0,00 h 0,00 h 0,0 km/h (0 Bft)
08.11.2011 07:00 17,0 C 4,5 C 0,0 UV-I 0,0 C 55 % 93 % 0 % 1016,3 hPa 0,0 l/m 0,0 km/h (0 Bft) 0,00 h 0,00 h 0,0 km/h (0 Bft)
08.11.2011 08:00 16,9 C 4,6 C 0,0 UV-I 0,0 C 55 % 94 % 0 % 1016,5 hPa 0,0 l/m 0,0 km/h (0 Bft) 0,00 h 0,00 h 0,0 km/h (0 Bft)
08.11.2011 09:00 17,0 C 5,6 C 0,1 UV-I 1,9 C 56 % 94 % 55 % 1016,7 hPa 0,0 l/m 0,7 km/h (0 Bft) 0,63 h 0,00 h 1,1 km/h (1 Bft)
08.11.2011 10:00 17,1 C 7,0 C 0,4 UV-I 6,5 C 56 % 94 % 100 % 1016,5 hPa 0,0 l/m 0,1 km/h (0 Bft) 1,00 h 0,00 h 0,1 km/h (0 Bft)
08.11.2011 11:00 17,3 C 9,6 C 0,8 UV-I 7,2 C 56 % 93 % 100 % 1016,5 hPa 0,0 l/m 1,1 km/h (1 Bft) 1,00 h 0,00 h 1,8 km/h (1 Bft)
08.11.2011 12:00 17,8 C 12,2 C 1,0 UV-I 5,8 C 57 % 88 % 100 % 1016,4 hPa 0,0 l/m 3,8 km/h (1 Bft) 1,00 h 0,00 h 4,7 km/h (1 Bft)
08.11.2011 13:00 18,9 C 14,0 C 1,0 UV-I 4,6 C 56 % 80 % 100 % 1016,4 hPa 0,0 l/m 4,6 km/h (1 Bft) 1,00 h 0,00 h 5,2 km/h (1 Bft)
08.11.2011 14:00 20,4 C 14,9 C 0,6 UV-I 3,5 C 53 % 73 % 91 % 1016,8 hPa 0,0 l/m 4,8 km/h (1 Bft) 1,00 h 0,00 h 5,7 km/h (1 Bft)
08.11.2011 15:00 20,7 C 14,2 C 0,2 UV-I 1,5 C 52 % 73 % 44 % 1017,0 hPa 0,0 l/m 4,6 km/h (1 Bft) 0,53 h 0,00 h 5,3 km/h (1 Bft)
08.11.2011 16:00 19,8 C 12,9 C 0,0 UV-I 0,0 C 52 % 76 % 0 % 1016,5 hPa 0,0 l/m 0,5 km/h (0 Bft) 0,00 h 0,00 h 0,3 km/h (0 Bft)
08.11.2011 17:00 19,1 C 11,0 C 0,0 UV-I 0,0 C 54 % 80 % 0 % 1016,2 hPa 0,0 l/m 0,0 km/h (0 Bft) 0,00 h 0,00 h 0,0 km/h (0 Bft)
08.11.2011 18:00 18,6 C 9,5 C 0,0 UV-I 0,0 C 55 % 83 % 0 % 1016,4 hPa 0,0 l/m 0,1 km/h (0 Bft) 0,00 h 0,00 h 0,1 km/h (0 Bft)
08.11.2011 19:00 18,2 C 9,4 C 0,0 UV-I 0,0 C 56 % 86 % 0 % 1016,6 hPa 0,0 l/m 0,0 km/h (0 Bft) 0,00 h 0,00 h 0,1 km/h (0 Bft)
08.11.2011 20:00 18,0 C 9,1 C 0,0 UV-I 0,0 C 56 % 87 % 0 % 1016,9 hPa 0,0 l/m 0,5 km/h (0 Bft) 0,00 h 0,00 h 1,4 km/h (1 Bft)
08.11.2011 21:00 17,9 C 8,7 C 0,0 UV-I 0,0 C 56 % 88 % 0 % 1017,2 hPa 0,0 l/m 1,9 km/h (1 Bft) 0,00 h 0,00 h 2,7 km/h (1 Bft)
08.11.2011 22:00 17,8 C 8,6 C 0,0 UV-I 0,0 C 56 % 88 % 0 % 1017,4 hPa 0,0 l/m 3,7 km/h (1 Bft) 0,00 h 0,00 h 4,9 km/h (1 Bft)
08.11.2011 23:00 17,7 C 8,4 C 0,0 UV-I 0,0 C 56 % 88 % 0 % 1017,4 hPa 0,0 l/m 3,2 km/h (1 Bft) 0,00 h 0,00 h 4,5 km/h (1 Bft)
09.11.2011 00:00 17,6 C 8,0 C 0,0 UV-I 0,0 C 56 % 88 % 0 % 1017,1 hPa 0,0 l/m 2,7 km/h (1 Bft) 0,00 h 0,00 h 3,6 km/h (1 Bft)
09.11.2011 01:00 17,5 C 7,7 C 0,0 UV-I 0,0 C 55 % 88 % 0 % 1017,1 hPa 0,0 l/m 4,3 km/h (1 Bft) 0,00 h 0,00 h 5,1 km/h (1 Bft)
09.11.2011 02:00 17,3 C 7,4 C 0,0 UV-I 0,0 C 55 % 89 % 0 % 1017,1 hPa 0,0 l/m 2,4 km/h (1 Bft) 0,00 h 0,00 h 3,4 km/h (1 Bft)
09.11.2011 03:00 17,2 C 7,0 C 0,0 UV-I 0,0 C 55 % 89 % 0 % 1017,3 hPa 0,0 l/m 0,9 km/h (0 Bft) 0,00 h 0,00 h 1,2 km/h (1 Bft)
09.11.2011 04:00 17,2 C 6,5 C 0,0 UV-I 0,0 C 55 % 89 % 0 % 1017,3 hPa 0,0 l/m 0,1 km/h (0 Bft) 0,00 h 0,00 h 0,4 km/h (0 Bft)
09.11.2011 05:00 17,1 C 6,1 C 0,0 UV-I 0,0 C 55 % 90 % 0 % 1017,7 hPa 0,0 l/m 0,1 km/h (0 Bft) 0,00 h 0,00 h 0,4 km/h (0 Bft)
09.11.2011 06:00 16,9 C 5,8 C 0,0 UV-I 0,0 C 54 % 90 % 0 % 1017,7 hPa 0,0 l/m 0,2 km/h (0 Bft) 0,00 h 0,00 h 0,4 km/h (0 Bft)
09.11.2011 07:00 16,8 C 5,8 C 0,0 UV-I 0,0 C 54 % 91 % 0 % 1018,0 hPa 0,0 l/m 4,0 km/h (1 Bft) 0,00 h 0,00 h 5,8 km/h (2 Bft)
09.11.2011 08:00 16,7 C 6,1 C 0,0 UV-I 0,0 C 53 % 91 % 0 % 1018,6 hPa 0,0 l/m 5,7 km/h (1 Bft) 0,00 h 0,00 h 6,6 km/h (2 Bft)
09.11.2011 09:00 16,7 C 6,9 C 0,1 UV-I 2,3 C 53 % 91 % 64 % 1019,0 hPa 0,0 l/m 7,5 km/h (2 Bft) 0,67 h 0,00 h 8,4 km/h (2 Bft)
09.11.2011 10:00 16,8 C 8,9 C 0,8 UV-I 5,6 C 54 % 90 % 100 % 1019,0 hPa 0,0 l/m 4,0 km/h (1 Bft) 1,00 h 0,00 h 4,1 km/h (1 Bft)
09.11.2011 11:00 17,1 C 11,3 C 1,1 UV-I 6,0 C 55 % 86 % 100 % 1019,6 hPa 0,0 l/m 3,5 km/h (1 Bft) 1,00 h 0,00 h 4,4 km/h (1 Bft)
09.11.2011 12:00 17,6 C 12,9 C 1,0 UV-I 5,4 C 55 % 80 % 100 % 1019,9 hPa 0,0 l/m 3,8 km/h (1 Bft) 1,00 h 0,00 h 3,9 km/h (1 Bft)
09.11.2011 13:00 18,8 C 14,5 C 1,0 UV-I 5,2 C 54 % 75 % 100 % 1020,1 hPa 0,0 l/m 3,2 km/h (1 Bft) 1,00 h 0,00 h 3,9 km/h (1 Bft)
09.11.2011 14:00 20,4 C 15,5 C 0,6 UV-I 4,1 C 51 % 71 % 100 % 1020,9 hPa 0,0 l/m 3,6 km/h (1 Bft) 0,97 h 0,00 h 3,7 km/h (1 Bft)
09.11.2011 15:00 21,1 C 14,3 C 0,1 UV-I 2,1 C 49 % 72 % 61 % 1021,7 hPa 0,0 l/m 4,2 km/h (1 Bft) 0,57 h 0,00 h 5,8 km/h (2 Bft)
09.11.2011 16:00 20,3 C 13,0 C 0,0 UV-I 0,0 C 49 % 75 % 0 % 1021,1 hPa 0,0 l/m 1,2 km/h (1 Bft) 0,00 h 0,00 h 1,3 km/h (1 Bft)
09.11.2011 17:00 19,4 C 11,4 C 0,0 UV-I 0,0 C 51 % 78 % 0 % 1020,7 hPa 0,0 l/m 0,0 km/h (0 Bft) 0,00 h 0,00 h 0,1 km/h (0 Bft)
09.11.2011 18:00 18,6 C 9,6 C 0,0 UV-I 0,0 C 53 % 81 % 0 % 1021,3 hPa 0,0 l/m 0,0 km/h (0 Bft) 0,00 h 0,00 h 0,0 km/h (0 Bft)
09.11.2011 19:00 18,2 C 9,0 C 0,0 UV-I 0,0 C 54 % 84 % 0 % 1021,4 hPa 0,0 l/m 0,8 km/h (0 Bft) 0,00 h 0,00 h 1,0 km/h (0 Bft)
09.11.2011 20:00 18,0 C 8,4 C 0,0 UV-I 0,0 C 54 % 86 % 0 % 1021,2 hPa 0,0 l/m 1,7 km/h (1 Bft) 0,00 h 0,00 h 3,0 km/h (1 Bft)
09.11.2011 21:00 17,8 C 7,9 C 0,0 UV-I 0,0 C 54 % 87 % 0 % 1021,4 hPa 0,0 l/m 2,9 km/h (1 Bft) 0,00 h 0,00 h 4,0 km/h (1 Bft)
09.11.2011 22:00 17,7 C 7,1 C 0,0 UV-I 0,0 C 54 % 88 % 0 % 1021,4 hPa 0,0 l/m 3,1 km/h (1 Bft) 0,00 h 0,00 h 3,6 km/h (1 Bft)
09.11.2011 23:00 17,5 C 6,5 C 0,0 UV-I 0,0 C 54 % 89 % 0 % 1021,1 hPa 0,0 l/m 2,3 km/h (1 Bft) 0,00 h 0,00 h 4,2 km/h (1 Bft)
10.11.2011 00:00 17,4 C 5,9 C 0,0 UV-I 0,0 C 54 % 90 % 0 % 1021,0 hPa 0,0 l/m 2,5 km/h (1 Bft) 0,00 h 0,00 h 3,1 km/h (1 Bft)
10.11.2011 01:00 17,2 C 5,4 C 0,0 UV-I 0,0 C 54 % 91 % 0 % 1020,8 hPa 0,0 l/m 2,6 km/h (1 Bft) 0,00 h 0,00 h 3,1 km/h (1 Bft)
10.11.2011 02:00 17,1 C 5,5 C 0,0 UV-I 0,0 C 54 % 92 % 0 % 1020,7 hPa 0,0 l/m 2,3 km/h (1 Bft) 0,00 h 0,00 h 3,4 km/h (1 Bft)
10.11.2011 03:00 17,1 C 5,6 C 0,0 UV-I 0,0 C 54 % 92 % 0 % 1020,6 hPa 0,0 l/m 2,6 km/h (1 Bft) 0,00 h 0,00 h 3,9 km/h (1 Bft)
10.11.2011 04:00 17,0 C 5,6 C 0,0 UV-I 0,0 C 54 % 92 % 0 % 1020,3 hPa 0,0 l/m 4,8 km/h (1 Bft) 0,00 h 0,00 h 5,9 km/h (2 Bft)
10.11.2011 05:00 17,0 C 5,5 C 0,0 UV-I 0,0 C 54 % 93 % 0 % 1020,2 hPa 0,0 l/m 3,8 km/h (1 Bft) 0,00 h 0,00 h 4,3 km/h (1 Bft)
10.11.2011 06:00 16,9 C 5,5 C 0,0 UV-I 0,0 C 54 % 93 % 0 % 1020,2 hPa 0,0 l/m 2,7 km/h (1 Bft) 0,00 h 0,00 h 3,5 km/h (1 Bft)
10.11.2011 07:00 16,8 C 5,6 C 0,0 UV-I 0,0 C 54 % 93 % 0 % 1020,4 hPa 0,0 l/m 3,5 km/h (1 Bft) 0,00 h 0,00 h 5,2 km/h (1 Bft)
10.11.2011 08:00 16,8 C 5,6 C 0,0 UV-I 0,0 C 54 % 93 % 0 % 1020,6 hPa 0,0 l/m 3,1 km/h (1 Bft) 0,00 h 0,00 h 4,5 km/h (1 Bft)
10.11.2011 09:00 16,8 C 5,9 C 0,0 UV-I 0,2 C 54 % 94 % 5 % 1020,9 hPa 0,0 l/m 3,5 km/h (1 Bft) 0,00 h 0,00 h 4,3 km/h (1 Bft)
10.11.2011 10:00 16,8 C 6,2 C 0,1 UV-I 0,8 C 53 % 94 % 22 % 1021,0 hPa 0,0 l/m 4,2 km/h (1 Bft) 0,00 h 0,00 h 4,8 km/h (1 Bft)
10.11.2011 11:00 16,8 C 6,9 C 0,2 UV-I 1,4 C 53 % 94 % 40 % 1020,9 hPa 0,0 l/m 2,9 km/h (1 Bft) 0,00 h 0,00 h 3,4 km/h (1 Bft)
10.11.2011 12:00 17,2 C 8,4 C 0,7 UV-I 3,2 C 54 % 93 % 74 % 1020,9 hPa 0,0 l/m 2,4 km/h (1 Bft) 0,40 h 0,00 h 3,4 km/h (1 Bft)
10.11.2011 13:00 18,4 C 10,9 C 0,9 UV-I 5,1 C 53 % 88 % 100 % 1020,9 hPa 0,0 l/m 5,5 km/h (1 Bft) 1,00 h 0,00 h 6,9 km/h (2 Bft)
10.11.2011 14:00 20,1 C 11,9 C 0,6 UV-I 4,3 C 49 % 81 % 100 % 1021,2 hPa 0,0 l/m 4,3 km/h (1 Bft) 1,00 h 0,00 h 5,0 km/h (1 Bft)
10.11.2011 15:00 20,7 C 11,2 C 0,1 UV-I 2,6 C 47 % 78 % 66 % 1021,1 hPa 0,0 l/m 3,5 km/h (1 Bft) 0,70 h 0,00 h 5,2 km/h (1 Bft)
10.11.2011 16:00 19,7 C 9,0 C 0,0 UV-I 0,0 C 47 % 80 % 0 % 1020,7 hPa 0,0 l/m 6,3 km/h (2 Bft) 0,00 h 0,00 h 6,8 km/h (2 Bft)
10.11.2011 17:00 18,6 C 7,0 C 0,0 UV-I 0,0 C 49 % 85 % 0 % 1020,6 hPa 0,0 l/m 5,2 km/h (1 Bft) 0,00 h 0,00 h 6,5 km/h (2 Bft)
10.11.2011 18:00 17,9 C 7,0 C 0,0 UV-I 0,0 C 50 % 86 % 0 % 1020,6 hPa 0,0 l/m 6,0 km/h (2 Bft) 0,00 h 0,00 h 7,6 km/h (2 Bft)
10.11.2011 19:00 17,5 C 6,9 C 0,0 UV-I 0,0 C 51 % 86 % 0 % 1020,6 hPa 0,0 l/m 6,8 km/h (2 Bft) 0,00 h 0,00 h 7,9 km/h (2 Bft)
10.11.2011 20:00 17,3 C 6,8 C 0,0 UV-I 0,0 C 51 % 87 % 0 % 1020,7 hPa 0,0 l/m 6,1 km/h (2 Bft) 0,00 h 0,00 h 7,7 km/h (2 Bft)
10.11.2011 21:00 17,2 C 6,8 C 0,0 UV-I 0,0 C 51 % 86 % 0 % 1020,5 hPa 0,0 l/m 5,2 km/h (1 Bft) 0,00 h 0,00 h 7,2 km/h (2 Bft)
10.11.2011 22:00 17,1 C 6,9 C 0,0 UV-I 0,0 C 51 % 86 % 0 % 1021,0 hPa 0,0 l/m 8,9 km/h (2 Bft) 0,00 h 0,00 h 10,9 km/h (2 Bft)
10.11.2011 23:00 17,0 C 7,1 C 0,0 UV-I 0,0 C 51 % 86 % 0 % 1020,7 hPa 0,0 l/m 10,1 km/h (2 Bft) 0,00 h 0,00 h 10,4 km/h (2 Bft)
11.11.2011 00:00 17,0 C 7,1 C 0,0 UV-I 0,0 C 52 % 86 % 0 % 1020,4 hPa 0,0 l/m 8,5 km/h (2 Bft) 0,00 h 0,00 h 11,3 km/h (2 Bft)
11.11.2011 01:00 16,9 C 7,3 C 0,0 UV-I 0,0 C 52 % 86 % 0 % 1020,4 hPa 0,0 l/m 9,3 km/h (2 Bft) 0,00 h 0,00 h 10,7 km/h (2 Bft)
11.11.2011 02:00 16,9 C 7,5 C 0,0 UV-I 0,0 C 52 % 84 % 0 % 1020,4 hPa 0,0 l/m 9,6 km/h (2 Bft) 0,00 h 0,00 h 10,8 km/h (2 Bft)
11.11.2011 03:00 16,9 C 7,6 C 0,0 UV-I 0,0 C 52 % 84 % 0 % 1020,3 hPa 0,0 l/m 8,3 km/h (2 Bft) 0,00 h 0,00 h 9,0 km/h (2 Bft)
11.11.2011 04:00 16,8 C 7,7 C 0,0 UV-I 0,0 C 52 % 84 % 0 % 1020,2 hPa 0,0 l/m 9,7 km/h (2 Bft) 0,00 h 0,00 h 11,0 km/h (2 Bft)
11.11.2011 05:00 16,8 C 7,9 C 0,0 UV-I 0,0 C 52 % 85 % 0 % 1020,2 hPa 0,0 l/m 8,4 km/h (2 Bft) 0,00 h 0,00 h 9,5 km/h (2 Bft)
11.11.2011 06:00 16,8 C 8,0 C 0,0 UV-I 0,0 C 52 % 84 % 0 % 1020,3 hPa 0,0 l/m 9,0 km/h (2 Bft) 0,00 h 0,00 h 10,7 km/h (2 Bft)
11.11.2011 07:00 16,8 C 8,3 C 0,0 UV-I 0,0 C 52 % 85 % 0 % 1020,6 hPa 0,0 l/m 10,5 km/h (2 Bft) 0,00 h 0,00 h 12,0 km/h (2 Bft)
11.11.2011 08:00 16,8 C 8,6 C 0,0 UV-I 0,0 C 52 % 84 % 0 % 1021,0 hPa 0,0 l/m 11,4 km/h (2 Bft) 0,00 h 0,00 h 13,5 km/h (3 Bft)
11.11.2011 09:00 16,8 C 9,0 C 0,0 UV-I 0,0 C 52 % 84 % 0 % 1021,4 hPa 0,0 l/m 11,7 km/h (2 Bft) 0,00 h 0,00 h 13,5 km/h (3 Bft)
11.11.2011 10:00 16,8 C 9,2 C 0,0 UV-I 0,0 C 52 % 83 % 0 % 1021,7 hPa 0,0 l/m 12,0 km/h (2 Bft) 0,00 h 0,00 h 13,3 km/h (3 Bft)
11.11.2011 11:00 16,8 C 9,5 C 0,0 UV-I 0,0 C 51 % 82 % 1 % 1021,5 hPa 0,0 l/m 13,2 km/h (3 Bft) 0,00 h 0,00 h 15,0 km/h (3 Bft)
11.11.2011 12:00 16,8 C 10,0 C 0,0 UV-I 0,1 C 52 % 80 % 3 % 1021,3 hPa 0,0 l/m 13,1 km/h (3 Bft) 0,00 h 0,00 h 17,1 km/h (3 Bft)
11.11.2011 13:00 17,0 C 10,3 C 0,0 UV-I 0,2 C 51 % 79 % 6 % 1021,2 hPa 0,0 l/m 13,0 km/h (3 Bft) 0,00 h 0,00 h 13,0 km/h (3 Bft)
11.11.2011 14:00 17,3 C 10,5 C 0,2 UV-I 0,3 C 51 % 76 % 9 % 1021,0 hPa 0,0 l/m 11,4 km/h (2 Bft) 0,00 h 0,00 h 12,1 km/h (2 Bft)
11.11.2011 15:00 18,1 C 10,5 C 0,1 UV-I 1,1 C 48 % 73 % 30 % 1021,2 hPa 0,0 l/m 10,0 km/h (2 Bft) 0,37 h 0,00 h 10,5 km/h (2 Bft)
11.11.2011 16:00 17,9 C 9,8 C 0,0 UV-I 0,0 C 47 % 74 % 0 % 1021,1 hPa 0,0 l/m 5,7 km/h (1 Bft) 0,00 h 0,00 h 6,2 km/h (2 Bft)
11.11.2011 17:00 17,2 C 8,6 C 0,0 UV-I 0,0 C 48 % 75 % 0 % 1021,1 hPa 0,0 l/m 3,8 km/h (1 Bft) 0,00 h 0,00 h 4,2 km/h (1 Bft)
11.11.2011 18:00 16,7 C 7,9 C 0,0 UV-I 0,0 C 50 % 76 % 0 % 1021,6 hPa 0,0 l/m 6,0 km/h (2 Bft) 0,00 h 0,00 h 7,5 km/h (2 Bft)
11.11.2011 19:00 16,5 C 7,1 C 0,0 UV-I 0,0 C 50 % 78 % 0 % 1021,8 hPa 0,0 l/m 8,5 km/h (2 Bft) 0,00 h 0,00 h 8,9 km/h (2 Bft)
11.11.2011 20:00 16,4 C 6,6 C 0,0 UV-I 0,0 C 50 % 78 % 0 % 1022,0 hPa 0,0 l/m 10,1 km/h (2 Bft) 0,00 h 0,00 h 10,3 km/h (2 Bft)
11.11.2011 21:00 16,2 C 6,0 C 0,0 UV-I 0,0 C 49 % 78 % 0 % 1022,6 hPa 0,0 l/m 10,8 km/h (2 Bft) 0,00 h 0,00 h 11,8 km/h (2 Bft)
11.11.2011 22:00 16,1 C 5,5 C 0,0 UV-I 0,0 C 49 % 79 % 0 % 1023,0 hPa 0,0 l/m 11,1 km/h (2 Bft) 0,00 h 0,00 h 11,7 km/h (2 Bft)
11.11.2011 23:00 16,0 C 5,2 C 0,0 UV-I 0,0 C 49 % 80 % 0 % 1023,1 hPa 0,0 l/m 10,6 km/h (2 Bft) 0,00 h 0,00 h 10,9 km/h (2 Bft)
12.11.2011 00:00 15,9 C 5,1 C 0,0 UV-I 0,0 C 49 % 80 % 0 % 1023,4 hPa 0,0 l/m 11,3 km/h (2 Bft) 0,00 h 0,00 h 14,4 km/h (3 Bft)
12.11.2011 01:00 15,9 C 5,1 C 0,0 UV-I 0,0 C 49 % 80 % 0 % 1023,6 hPa 0,0 l/m 11,1 km/h (2 Bft) 0,00 h 0,00 h 11,6 km/h (2 Bft)
12.11.2011 02:00 15,8 C 4,9 C 0,0 UV-I 0,0 C 49 % 80 % 0 % 1024,1 hPa 0,0 l/m 11,6 km/h (2 Bft) 0,00 h 0,00 h 11,2 km/h (2 Bft)
12.11.2011 03:00 15,7 C 4,7 C 0,0 UV-I 0,0 C 48 % 81 % 0 % 1024,3 hPa 0,0 l/m 11,4 km/h (2 Bft) 0,00 h 0,00 h 12,2 km/h (2 Bft)
12.11.2011 04:00 15,7 C 4,5 C 0,0 UV-I 0,0 C 49 % 82 % 0 % 1024,4 hPa 0,0 l/m 9,5 km/h (2 Bft) 0,00 h 0,00 h 10,6 km/h (2 Bft)
12.11.2011 05:00 15,6 C 4,3 C 0,0 UV-I 0,0 C 49 % 83 % 0 % 1025,0 hPa 0,0 l/m 8,1 km/h (2 Bft) 0,00 h 0,00 h 7,9 km/h (2 Bft)
12.11.2011 06:00 15,6 C 4,3 C 0,0 UV-I 0,0 C 49 % 84 % 0 % 1025,5 hPa 0,0 l/m 7,2 km/h (2 Bft) 0,00 h 0,00 h 9,0 km/h (2 Bft)
12.11.2011 07:00 15,6 C 4,3 C 0,0 UV-I 0,0 C 49 % 85 % 0 % 1026,1 hPa 0,0 l/m 7,6 km/h (2 Bft) 0,00 h 0,00 h 7,9 km/h (2 Bft)
12.11.2011 08:00 15,6 C 4,4 C 0,0 UV-I 0,0 C 49 % 86 % 0 % 1026,6 hPa 0,0 l/m 8,1 km/h (2 Bft) 0,00 h 0,00 h 9,3 km/h (2 Bft)
12.11.2011 09:00 15,6 C 5,4 C 0,0 UV-I 1,7 C 49 % 85 % 48 % 1027,3 hPa 0,0 l/m 10,4 km/h (2 Bft) 0,50 h 0,00 h 11,9 km/h (2 Bft)
12.11.2011 10:00 15,7 C 7,1 C 0,3 UV-I 4,1 C 49 % 82 % 100 % 1027,6 hPa 0,0 l/m 10,1 km/h (2 Bft) 1,00 h 0,00 h 11,1 km/h (2 Bft)
12.11.2011 11:00 15,9 C 9,1 C 0,4 UV-I 4,5 C 50 % 77 % 100 % 1028,0 hPa 0,0 l/m 9,7 km/h (2 Bft) 1,00 h 0,00 h 10,3 km/h (2 Bft)
12.11.2011 12:00 16,3 C 10,6 C 0,7 UV-I 4,8 C 50 % 72 % 100 % 1028,0 hPa 0,0 l/m 7,6 km/h (2 Bft) 1,00 h 0,00 h 8,7 km/h (2 Bft)
12.11.2011 13:00 17,4 C 12,0 C 0,8 UV-I 4,7 C 50 % 70 % 100 % 1029,0 hPa 0,0 l/m 5,9 km/h (2 Bft) 1,00 h 0,00 h 6,5 km/h (2 Bft)
12.11.2011 14:00 18,8 C 12,8 C 0,4 UV-I 4,1 C 47 % 67 % 100 % 1029,9 hPa 0,0 l/m 5,6 km/h (1 Bft) 1,00 h 0,00 h 6,6 km/h (2 Bft)
12.11.2011 15:00 19,4 C 12,0 C 0,0 UV-I 2,0 C 45 % 68 % 56 % 1030,3 hPa 0,0 l/m 4,3 km/h (1 Bft) 0,60 h 0,00 h 5,2 km/h (1 Bft)
12.11.2011 16:00 18,5 C 10,6 C 0,0 UV-I 0,0 C 46 % 73 % 0 % 1030,1 hPa 0,0 l/m 4,2 km/h (1 Bft) 0,00 h 0,00 h 5,4 km/h (1 Bft)
12.11.2011 17:00 17,8 C 9,4 C 0,0 UV-I 0,0 C 48 % 77 % 0 % 1030,1 hPa 0,0 l/m 5,1 km/h (1 Bft) 0,00 h 0,00 h 5,9 km/h (2 Bft)
12.11.2011 18:00 17,2 C 8,4 C 0,0 UV-I 0,0 C 50 % 80 % 0 % 1030,6 hPa 0,0 l/m 5,3 km/h (1 Bft) 0,00 h 0,00 h 5,4 km/h (1 Bft)
12.11.2011 19:00 16,9 C 7,6 C 0,0 UV-I 0,0 C 51 % 83 % 0 % 1030,5 hPa 0,0 l/m 5,6 km/h (1 Bft) 0,00 h 0,00 h 6,5 km/h (2 Bft)
12.11.2011 20:00 16,7 C 7,1 C 0,0 UV-I 0,0 C 51 % 86 % 0 % 1030,8 hPa 0,0 l/m 4,9 km/h (1 Bft) 0,00 h 0,00 h 5,9 km/h (2 Bft)
12.11.2011 21:00 16,6 C 6,6 C 0,0 UV-I 0,0 C 51 % 88 % 0 % 1030,9 hPa 0,0 l/m 6,0 km/h (2 Bft) 0,00 h 0,00 h 8,0 km/h (2 Bft)
12.11.2011 22:00 16,4 C 6,3 C 0,0 UV-I 0,0 C 52 % 89 % 0 % 1031,3 hPa 0,0 l/m 4,6 km/h (1 Bft) 0,00 h 0,00 h 5,8 km/h (2 Bft)
12.11.2011 23:00 16,4 C 6,3 C 0,0 UV-I 0,0 C 52 % 90 % 0 % 1031,4 hPa 0,0 l/m 7,0 km/h (2 Bft) 0,00 h 0,00 h 7,9 km/h (2 Bft)
13.11.2011 00:00 16,4 C 6,5 C 0,0 UV-I 0,0 C 52 % 90 % 0 % 1032,0 hPa 0,0 l/m 6,9 km/h (2 Bft) 0,00 h 0,00 h 8,3 km/h (2 Bft)
13.11.2011 01:00 16,4 C 6,6 C 0,0 UV-I 0,0 C 53 % 91 % 0 % 1032,1 hPa 0,0 l/m 5,7 km/h (1 Bft) 0,00 h 0,00 h 6,9 km/h (2 Bft)
13.11.2011 02:00 16,4 C 6,6 C 0,0 UV-I 0,0 C 53 % 91 % 0 % 1031,8 hPa 0,0 l/m 4,7 km/h (1 Bft) 0,00 h 0,00 h 5,7 km/h (1 Bft)
13.11.2011 03:00 16,3 C 6,6 C 0,0 UV-I 0,0 C 53 % 91 % 0 % 1031,6 hPa 0,0 l/m 4,2 km/h (1 Bft) 0,00 h 0,00 h 5,4 km/h (1 Bft)
13.11.2011 04:00 16,3 C 6,3 C 0,0 UV-I 0,0 C 53 % 91 % 0 % 1031,5 hPa 0,0 l/m 5,8 km/h (2 Bft) 0,00 h 0,00 h 7,1 km/h (2 Bft)
13.11.2011 05:00 16,3 C 6,1 C 0,0 UV-I 0,0 C 53 % 92 % 0 % 1031,4 hPa 0,0 l/m 5,3 km/h (1 Bft) 0,00 h 0,00 h 6,3 km/h (2 Bft)
13.11.2011 06:00 16,2 C 6,0 C 0,0 UV-I 0,0 C 53 % 92 % 0 % 1031,2 hPa 0,0 l/m 5,9 km/h (2 Bft) 0,00 h 0,00 h 6,1 km/h (2 Bft)
13.11.2011 07:00 16,2 C 5,9 C 0,0 UV-I 0,0 C 53 % 92 % 0 % 1031,1 hPa 0,0 l/m 5,0 km/h (1 Bft) 0,00 h 0,00 h 6,0 km/h (2 Bft)
13.11.2011 08:00 16,2 C 5,9 C 0,0 UV-I 0,0 C 53 % 92 % 0 % 1031,5 hPa 0,0 l/m 4,4 km/h (1 Bft) 0,00 h 0,00 h 5,4 km/h (1 Bft)
13.11.2011 09:00 16,2 C 5,9 C 0,0 UV-I 0,0 C 53 % 93 % 1 % 1031,9 hPa 0,0 l/m 3,3 km/h (1 Bft) 0,00 h 0,00 h 4,0 km/h (1 Bft)
13.11.2011 10:00 16,2 C 6,0 C 0,0 UV-I 0,3 C 53 % 93 % 8 % 1031,8 hPa 0,0 l/m 3,7 km/h (1 Bft) 0,00 h 0,00 h 4,4 km/h (1 Bft)
13.11.2011 11:00 16,3 C 6,3 C 0,0 UV-I 0,5 C 54 % 93 % 15 % 1031,7 hPa 0,0 l/m 3,5 km/h (1 Bft) 0,00 h 0,00 h 4,7 km/h (1 Bft)
13.11.2011 12:00 16,4 C 6,8 C 0,0 UV-I 0,8 C 53 % 93 % 22 % 1031,0 hPa 0,0 l/m 4,5 km/h (1 Bft) 0,00 h 0,00 h 5,2 km/h (1 Bft)
13.11.2011 13:00 16,5 C 7,7 C 0,0 UV-I 1,1 C 53 % 92 % 32 % 1030,6 hPa 0,0 l/m 3,7 km/h (1 Bft) 0,00 h 0,00 h 4,2 km/h (1 Bft)
13.11.2011 14:00 17,0 C 8,4 C 0,1 UV-I 2,2 C 53 % 90 % 60 % 1030,3 hPa 0,0 l/m 3,9 km/h (1 Bft) 0,40 h 0,00 h 4,2 km/h (1 Bft)
13.11.2011 15:00 18,0 C 8,6 C 0,0 UV-I 1,5 C 51 % 89 % 43 % 1030,3 hPa 0,0 l/m 2,0 km/h (1 Bft) 0,53 h 0,00 h 2,2 km/h (1 Bft)
13.11.2011 16:00 17,7 C 8,3 C 0,0 UV-I 0,0 C 51 % 88 % 0 % 1029,8 hPa 0,0 l/m 0,3 km/h (0 Bft) 0,00 h 0,00 h 0,7 km/h (0 Bft)
13.11.2011 17:00 17,1 C 6,9 C 0,0 UV-I 0,0 C 53 % 89 % 0 % 1029,4 hPa 0,0 l/m 0,0 km/h (0 Bft) 0,00 h 0,00 h 0,1 km/h (0 Bft)
13.11.2011 18:00 16,7 C 6,4 C 0,0 UV-I 0,0 C 54 % 92 % 0 % 1029,2 hPa 0,0 l/m 0,9 km/h (0 Bft) 0,00 h 0,00 h 1,6 km/h (1 Bft)
13.11.2011 19:00 16,5 C 6,1 C 0,0 UV-I 0,0 C 54 % 93 % 0 % 1028,7 hPa 0,0 l/m 1,1 km/h (1 Bft) 0,00 h 0,00 h 1,5 km/h (1 Bft)
13.11.2011 20:00 16,4 C 5,2 C 0,0 UV-I 0,0 C 54 % 93 % 0 % 1028,8 hPa 0,0 l/m 2,1 km/h (1 Bft) 0,00 h 0,00 h 2,9 km/h (1 Bft)
13.11.2011 21:00 16,2 C 5,7 C 0,0 UV-I 0,0 C 54 % 91 % 0 % 1028,5 hPa 0,0 l/m 5,4 km/h (1 Bft) 0,00 h 0,00 h 5,5 km/h (1 Bft)
13.11.2011 22:00 16,1 C 5,8 C 0,0 UV-I 0,0 C 53 % 88 % 0 % 1028,2 hPa 0,0 l/m 6,2 km/h (2 Bft) 0,00 h 0,00 h 8,1 km/h (2 Bft)
13.11.2011 23:00 16,0 C 5,3 C 0,0 UV-I 0,0 C 52 % 87 % 0 % 1028,0 hPa 0,0 l/m 5,8 km/h (2 Bft) 0,00 h 0,00 h 6,4 km/h (2 Bft)
Min-Datum _ 12.11.11 12.11.11 07.11.11 07.11.11 12.11.11 12.11.11 07.11.11 08.11.11 - 07.11.11 - - 07.11.11
_ Min-Zeit 02:54 07:58 00:00 00:00 15:10 14:12 00:00 12:46 - 19:52 - - 00:00
Minimum _ 15,6 C 4,1 C 0,0 UV-I 0,0 C 45 % 66 % 0 % 1016,1 hPa - 0,0 km/h (0 Bft) - - 0,0 km/h (0 Bft)
Max-Datum _ 09.11.11 09.11.11 09.11.11 08.11.11 07.11.11 08.11.11 08.11.11 13.11.11 07.11.11 11.11.11 08.11.11 07.11.11 11.11.11
_ Max-Zeit 15:22 14:44 11:20 11:00 00:00 10:30 09:58 00:06 00:00 13:02 09:22 00:00 12:46
Maximum _ 21,2 C 15,7 C 1,4 UV-I 8,1 C 58 % 95 % 100 % 1032,1 hPa 0,0 l/m 19,3 km/h
SO (3 Bft)
0,03 h 0,00 h 37,0 km/h
SO (5 Bft)
Durchschnitt _ 17,3 C 7,9 C 0,1 UV-I 0,7 C 53 % 86 % 15 % 1022,0 hPa #0,0 l/m 4,9 km/h (1 Bft) #22:52 h #0 min. 5,7 km/h (1 Bft)
© 2012 W. Hausmann